RPV12L UKLI-LTFM
Flight info
| Callsign | RPV12L |
|---|---|
| Flight time | 1h 33m |
| Altitude | 37000 |
| Route | POBED DCT RIXEN |
| Aircraft | A21N/M-SDE3FGHIRWY/LB1 |
Departure
| Time | 2026-05-06 02:48 |
|---|---|
| Airport | Ivano-Frankivsk International Airport (UKLI) |
Arrival
| Time | 2026-05-06 04:22 |
|---|---|
| Airport | İstanbul Airport (LTFM) |
| Time | Latitude | Longitude | Altitude | Speed | Heading |
|---|---|---|---|---|---|
| 2026-05-06 02:46 | 48.88762 | 24.67088 | 914 ft | 10 kts | 279° |
| 2026-05-06 02:46 | 48.88774 | 24.66973 | 914 ft | 11 kts | 279° |
| 2026-05-06 02:46 | 48.88774 | 24.66855 | 914 ft | 11 kts | 234° |
| 2026-05-06 02:47 | 48.88699 | 24.66816 | 914 ft | 12 kts | 187° |
| 2026-05-06 02:47 | 48.88644 | 24.66890 | 915 ft | 11 kts | 109° |
| 2026-05-06 02:47 | 48.88614 | 24.67067 | 915 ft | 38 kts | 104° |
| 2026-05-06 02:47 | 48.88491 | 24.67822 | 912 ft | 107 kts | 104° |
| 2026-05-06 02:48 | 48.88263 | 24.69221 | 919 ft | 160 kts | 104° |
| 2026-05-06 02:48 | 48.87967 | 24.70900 | 1356 ft | 168 kts | 106° |
| 2026-05-06 02:48 | 48.87648 | 24.72612 | 1989 ft | 171 kts | 107° |
| 2026-05-06 02:48 | 48.87323 | 24.74348 | 2643 ft | 173 kts | 108° |
| 2026-05-06 02:49 | 48.86959 | 24.76127 | 3112 ft | 187 kts | 109° |
| 2026-05-06 02:49 | 48.86534 | 24.78081 | 3531 ft | 205 kts | 110° |
| 2026-05-06 02:49 | 48.86071 | 24.80229 | 3943 ft | 225 kts | 110° |
| 2026-05-06 02:49 | 48.85566 | 24.82592 | 4433 ft | 243 kts | 109° |
| 2026-05-06 02:50 | 48.85032 | 24.85115 | 4918 ft | 261 kts | 109° |
| 2026-05-06 02:50 | 48.84462 | 24.87807 | 5473 ft | 275 kts | 109° |
| 2026-05-06 02:50 | 48.83882 | 24.90563 | 6237 ft | 280 kts | 109° |
| 2026-05-06 02:50 | 48.83288 | 24.93391 | 7047 ft | 282 kts | 109° |
| 2026-05-06 02:51 | 48.82698 | 24.96194 | 7833 ft | 284 kts | 109° |
| 2026-05-06 02:51 | 48.82096 | 24.99044 | 8617 ft | 286 kts | 110° |
| 2026-05-06 02:51 | 48.81490 | 25.01909 | 9384 ft | 288 kts | 110° |
| 2026-05-06 02:51 | 48.80882 | 25.04780 | 10123 ft | 290 kts | 110° |
| 2026-05-06 02:52 | 48.80257 | 25.07719 | 10660 ft | 300 kts | 109° |
| 2026-05-06 02:52 | 48.79596 | 25.10821 | 10987 ft | 316 kts | 109° |
| 2026-05-06 02:52 | 48.78907 | 25.14056 | 11293 ft | 333 kts | 109° |
| 2026-05-06 02:52 | 48.78178 | 25.17474 | 11579 ft | 349 kts | 109° |
| 2026-05-06 02:53 | 48.77419 | 25.21035 | 11919 ft | 361 kts | 109° |
| 2026-05-06 02:53 | 48.76644 | 25.24664 | 12471 ft | 366 kts | 109° |
| 2026-05-06 02:53 | 48.75862 | 25.28322 | 13101 ft | 368 kts | 109° |
| 2026-05-06 02:53 | 48.75075 | 25.31988 | 13698 ft | 370 kts | 109° |
| 2026-05-06 02:54 | 48.74277 | 25.35703 | 14272 ft | 373 kts | 109° |
| 2026-05-06 02:54 | 48.73469 | 25.39454 | 14829 ft | 376 kts | 109° |
| 2026-05-06 02:54 | 48.72507 | 25.43109 | 15344 ft | 379 kts | 121° |
| 2026-05-06 02:54 | 48.70771 | 25.46047 | 15866 ft | 379 kts | 143° |
| 2026-05-06 02:55 | 48.68455 | 25.47913 | 16418 ft | 379 kts | 160° |
| 2026-05-06 02:55 | 48.65957 | 25.49279 | 16944 ft | 383 kts | 160° |
| 2026-05-06 02:55 | 48.63457 | 25.50647 | 17437 ft | 386 kts | 160° |
| 2026-05-06 02:55 | 48.60921 | 25.52047 | 17926 ft | 389 kts | 160° |
| 2026-05-06 02:56 | 48.58400 | 25.53448 | 18409 ft | 392 kts | 160° |
| 2026-05-06 02:56 | 48.55845 | 25.54873 | 18892 ft | 395 kts | 160° |
| 2026-05-06 02:56 | 48.53241 | 25.56329 | 19376 ft | 397 kts | 160° |
| 2026-05-06 02:56 | 48.50668 | 25.57769 | 19824 ft | 400 kts | 159° |
| 2026-05-06 02:57 | 48.48056 | 25.59231 | 20252 ft | 404 kts | 159° |
| 2026-05-06 02:57 | 48.45408 | 25.60714 | 20681 ft | 406 kts | 160° |
| 2026-05-06 02:57 | 48.42772 | 25.62188 | 21087 ft | 409 kts | 159° |
| 2026-05-06 02:57 | 48.40081 | 25.63692 | 21491 ft | 411 kts | 159° |
| 2026-05-06 02:58 | 48.37415 | 25.65178 | 21905 ft | 413 kts | 160° |
| 2026-05-06 02:58 | 48.34695 | 25.66692 | 22317 ft | 415 kts | 160° |
| 2026-05-06 02:58 | 48.32014 | 25.68185 | 22689 ft | 418 kts | 160° |
| 2026-05-06 02:58 | 48.29297 | 25.69697 | 23054 ft | 420 kts | 160° |
| 2026-05-06 02:59 | 48.26547 | 25.71226 | 23414 ft | 422 kts | 160° |
| 2026-05-06 02:59 | 48.23775 | 25.72764 | 23762 ft | 425 kts | 159° |
| 2026-05-06 02:59 | 48.21012 | 25.74296 | 24091 ft | 427 kts | 159° |
| 2026-05-06 02:59 | 48.18195 | 25.75858 | 24414 ft | 430 kts | 159° |
| 2026-05-06 03:00 | 48.15389 | 25.77411 | 24729 ft | 433 kts | 159° |
| 2026-05-06 03:00 | 48.12573 | 25.78967 | 25037 ft | 435 kts | 159° |
| 2026-05-06 03:00 | 48.09740 | 25.80530 | 25321 ft | 438 kts | 159° |
| 2026-05-06 03:00 | 48.06857 | 25.82120 | 25601 ft | 441 kts | 159° |
| 2026-05-06 03:01 | 48.04001 | 25.83692 | 25873 ft | 443 kts | 159° |
| 2026-05-06 03:01 | 48.01111 | 25.85283 | 26143 ft | 446 kts | 159° |
| 2026-05-06 03:01 | 47.98169 | 25.86898 | 26413 ft | 448 kts | 159° |
| 2026-05-06 03:01 | 47.95254 | 25.88498 | 26671 ft | 450 kts | 159° |
| 2026-05-06 03:02 | 47.92314 | 25.90108 | 26937 ft | 453 kts | 159° |
| 2026-05-06 03:02 | 47.89351 | 25.91730 | 27187 ft | 455 kts | 159° |
| 2026-05-06 03:02 | 47.86377 | 25.93357 | 27437 ft | 457 kts | 159° |
| 2026-05-06 03:02 | 47.83405 | 25.94979 | 27729 ft | 457 kts | 159° |
| 2026-05-06 03:03 | 47.80423 | 25.96605 | 28094 ft | 457 kts | 159° |
| 2026-05-06 03:03 | 47.77457 | 25.98220 | 28455 ft | 456 kts | 159° |
| 2026-05-06 03:03 | 47.74496 | 25.99830 | 28786 ft | 456 kts | 159° |
| 2026-05-06 03:03 | 47.71506 | 26.01455 | 29116 ft | 456 kts | 159° |
| 2026-05-06 03:04 | 47.68538 | 26.03067 | 29447 ft | 456 kts | 159° |
| 2026-05-06 03:04 | 47.65586 | 26.04667 | 29779 ft | 456 kts | 159° |
| 2026-05-06 03:04 | 47.62621 | 26.06272 | 30119 ft | 456 kts | 159° |
| 2026-05-06 03:04 | 47.59638 | 26.07885 | 30451 ft | 456 kts | 159° |
| 2026-05-06 03:05 | 47.56660 | 26.09494 | 30780 ft | 456 kts | 159° |
| 2026-05-06 03:05 | 47.53696 | 26.11093 | 31115 ft | 456 kts | 159° |
| 2026-05-06 03:05 | 47.50723 | 26.12695 | 31439 ft | 456 kts | 159° |
| 2026-05-06 03:05 | 47.47739 | 26.14300 | 31761 ft | 456 kts | 159° |
| 2026-05-06 03:06 | 47.44758 | 26.15903 | 32083 ft | 456 kts | 159° |
| 2026-05-06 03:06 | 47.41804 | 26.17488 | 32392 ft | 456 kts | 159° |
| 2026-05-06 03:06 | 47.38842 | 26.19075 | 32710 ft | 455 kts | 159° |
| 2026-05-06 03:06 | 47.35871 | 26.20666 | 33018 ft | 455 kts | 159° |
| 2026-05-06 03:07 | 47.32855 | 26.22278 | 33311 ft | 455 kts | 158° |
| 2026-05-06 03:07 | 47.29897 | 26.23859 | 33589 ft | 456 kts | 158° |
| 2026-05-06 03:07 | 47.26910 | 26.25453 | 33880 ft | 456 kts | 158° |
| 2026-05-06 03:07 | 47.23945 | 26.27034 | 34177 ft | 455 kts | 158° |
| 2026-05-06 03:08 | 47.20960 | 26.28623 | 34451 ft | 456 kts | 158° |
| 2026-05-06 03:08 | 47.17979 | 26.30208 | 34721 ft | 456 kts | 158° |
| 2026-05-06 03:08 | 47.15029 | 26.31776 | 34958 ft | 455 kts | 159° |
| 2026-05-06 03:08 | 47.12072 | 26.33344 | 35198 ft | 455 kts | 159° |
| 2026-05-06 03:09 | 47.09090 | 26.34925 | 35415 ft | 455 kts | 159° |
| 2026-05-06 03:09 | 47.06135 | 26.36489 | 35591 ft | 456 kts | 159° |
| 2026-05-06 03:09 | 47.03157 | 26.38061 | 35760 ft | 457 kts | 159° |
| 2026-05-06 03:09 | 47.00178 | 26.39633 | 35944 ft | 457 kts | 159° |
| 2026-05-06 03:10 | 46.97152 | 26.41229 | 36110 ft | 458 kts | 159° |
| 2026-05-06 03:10 | 46.94185 | 26.42790 | 36265 ft | 459 kts | 159° |
| 2026-05-06 03:10 | 46.91198 | 26.44361 | 36416 ft | 460 kts | 159° |
| 2026-05-06 03:10 | 46.88187 | 26.45943 | 36590 ft | 460 kts | 159° |
| 2026-05-06 03:11 | 46.85164 | 26.47530 | 36779 ft | 460 kts | 159° |
| 2026-05-06 03:11 | 46.82172 | 26.49098 | 36952 ft | 461 kts | 159° |
| 2026-05-06 03:11 | 46.79141 | 26.50683 | 36983 ft | 462 kts | 159° |
| 2026-05-06 03:12 | 46.73102 | 26.53837 | 36993 ft | 463 kts | 159° |
| 2026-05-06 03:12 | 46.67049 | 26.56992 | 36987 ft | 463 kts | 159° |
| 2026-05-06 03:13 | 46.61008 | 26.60134 | 36979 ft | 463 kts | 159° |
| 2026-05-06 03:13 | 46.54938 | 26.63283 | 36985 ft | 464 kts | 159° |
| 2026-05-06 03:14 | 46.48873 | 26.66422 | 36979 ft | 463 kts | 160° |
| 2026-05-06 03:14 | 46.42802 | 26.69557 | 36983 ft | 463 kts | 160° |
| 2026-05-06 03:15 | 46.36707 | 26.72698 | 36994 ft | 464 kts | 160° |
| 2026-05-06 03:15 | 46.30672 | 26.75800 | 36977 ft | 464 kts | 160° |
| 2026-05-06 03:16 | 46.24576 | 26.78927 | 36984 ft | 465 kts | 160° |
| 2026-05-06 03:16 | 46.18495 | 26.82036 | 36991 ft | 465 kts | 160° |
| 2026-05-06 03:17 | 46.12396 | 26.85148 | 36992 ft | 465 kts | 160° |
| 2026-05-06 03:17 | 46.06289 | 26.88257 | 36985 ft | 465 kts | 160° |
| 2026-05-06 03:18 | 46.00249 | 26.91325 | 36975 ft | 464 kts | 160° |
| 2026-05-06 03:18 | 45.94161 | 26.94410 | 37004 ft | 464 kts | 160° |
| 2026-05-06 03:19 | 45.88050 | 26.97500 | 37005 ft | 465 kts | 160° |
| 2026-05-06 03:19 | 45.81942 | 27.00581 | 37006 ft | 465 kts | 160° |
| 2026-05-06 03:20 | 45.72757 | 27.05200 | 37003 ft | 465 kts | 160° |
| 2026-05-06 03:20 | 45.66631 | 27.08272 | 37006 ft | 465 kts | 160° |
| 2026-05-06 03:21 | 45.60538 | 27.11320 | 37004 ft | 465 kts | 160° |
| 2026-05-06 03:21 | 45.54439 | 27.14364 | 37004 ft | 465 kts | 160° |
| 2026-05-06 03:22 | 45.48362 | 27.17390 | 37005 ft | 465 kts | 160° |
| 2026-05-06 03:22 | 45.42248 | 27.20428 | 37010 ft | 466 kts | 160° |
| 2026-05-06 03:23 | 45.36155 | 27.23449 | 37014 ft | 466 kts | 160° |
| 2026-05-06 03:23 | 45.30045 | 27.26471 | 37014 ft | 466 kts | 160° |
| 2026-05-06 03:24 | 45.23909 | 27.29499 | 37015 ft | 465 kts | 160° |
| 2026-05-06 03:24 | 45.17816 | 27.32499 | 37016 ft | 466 kts | 160° |
| 2026-05-06 03:25 | 45.11724 | 27.35492 | 37018 ft | 467 kts | 160° |
| 2026-05-06 03:25 | 45.05583 | 27.38500 | 37018 ft | 466 kts | 160° |
| 2026-05-06 03:26 | 44.99451 | 27.41499 | 37017 ft | 466 kts | 160° |
| 2026-05-06 03:26 | 44.93345 | 27.44479 | 37019 ft | 466 kts | 160° |
| 2026-05-06 03:27 | 44.87214 | 27.47463 | 37020 ft | 466 kts | 160° |
| 2026-05-06 03:27 | 44.81122 | 27.50422 | 37023 ft | 466 kts | 160° |
| 2026-05-06 03:28 | 44.75008 | 27.53385 | 37021 ft | 466 kts | 160° |
| 2026-05-06 03:28 | 44.68868 | 27.56353 | 37019 ft | 466 kts | 160° |
| 2026-05-06 03:29 | 44.62774 | 27.59293 | 37022 ft | 466 kts | 160° |
| 2026-05-06 03:29 | 44.56643 | 27.62244 | 37017 ft | 466 kts | 160° |
| 2026-05-06 03:30 | 44.50502 | 27.65194 | 37019 ft | 466 kts | 161° |
| 2026-05-06 03:30 | 44.44353 | 27.68140 | 37022 ft | 466 kts | 161° |
| 2026-05-06 03:31 | 44.38238 | 27.71063 | 37022 ft | 465 kts | 161° |
| 2026-05-06 03:31 | 44.32129 | 27.73979 | 37021 ft | 466 kts | 161° |
| 2026-05-06 03:32 | 44.25965 | 27.76913 | 37021 ft | 467 kts | 161° |
| 2026-05-06 03:32 | 44.19878 | 27.79805 | 37028 ft | 467 kts | 161° |
| 2026-05-06 03:33 | 44.13705 | 27.82730 | 37035 ft | 466 kts | 161° |
| 2026-05-06 03:33 | 44.07583 | 27.85625 | 37033 ft | 465 kts | 161° |
| 2026-05-06 03:34 | 44.01492 | 27.88500 | 37020 ft | 465 kts | 161° |
| 2026-05-06 03:34 | 43.95377 | 27.91378 | 37034 ft | 466 kts | 161° |
| 2026-05-06 03:35 | 43.89256 | 27.94253 | 37032 ft | 466 kts | 161° |
| 2026-05-06 03:35 | 43.83104 | 27.97138 | 37031 ft | 466 kts | 161° |
| 2026-05-06 03:36 | 43.76952 | 28.00016 | 37036 ft | 466 kts | 161° |
| 2026-05-06 03:36 | 43.70831 | 28.02873 | 37033 ft | 465 kts | 161° |
| 2026-05-06 03:37 | 43.64728 | 28.05716 | 37030 ft | 465 kts | 161° |
| 2026-05-06 03:37 | 43.58604 | 28.08561 | 37025 ft | 466 kts | 161° |
| 2026-05-06 03:38 | 43.52470 | 28.11406 | 37032 ft | 466 kts | 161° |
| 2026-05-06 03:38 | 43.46330 | 28.14249 | 37028 ft | 466 kts | 161° |
| 2026-05-06 03:39 | 43.40174 | 28.17092 | 37032 ft | 466 kts | 161° |
| 2026-05-06 03:39 | 43.34057 | 28.19910 | 37042 ft | 466 kts | 161° |
| 2026-05-06 03:40 | 43.27856 | 28.22760 | 37037 ft | 467 kts | 161° |
| 2026-05-06 03:40 | 43.21670 | 28.25599 | 37040 ft | 467 kts | 161° |
| 2026-05-06 03:41 | 43.15463 | 28.28441 | 37042 ft | 466 kts | 161° |
| 2026-05-06 03:41 | 43.09250 | 28.31280 | 37050 ft | 467 kts | 161° |
| 2026-05-06 03:42 | 43.03106 | 28.34081 | 37050 ft | 466 kts | 161° |
| 2026-05-06 03:42 | 42.96883 | 28.36912 | 37048 ft | 468 kts | 161° |
| 2026-05-06 03:43 | 42.90693 | 28.39722 | 37052 ft | 468 kts | 161° |
| 2026-05-06 03:43 | 42.84626 | 28.42470 | 37047 ft | 468 kts | 161° |
| 2026-05-06 03:44 | 42.78453 | 28.45261 | 37055 ft | 467 kts | 161° |
| 2026-05-06 03:44 | 42.72291 | 28.48040 | 37055 ft | 467 kts | 161° |
| 2026-05-06 03:45 | 42.66125 | 28.50817 | 36536 ft | 467 kts | 161° |
| 2026-05-06 03:45 | 42.62995 | 28.52224 | 35775 ft | 471 kts | 161° |
| 2026-05-06 03:45 | 42.59854 | 28.53634 | 34991 ft | 476 kts | 161° |
| 2026-05-06 03:46 | 42.56738 | 28.55031 | 34243 ft | 478 kts | 161° |
| 2026-05-06 03:46 | 42.53570 | 28.56451 | 33446 ft | 479 kts | 161° |
| 2026-05-06 03:46 | 42.50412 | 28.57864 | 32634 ft | 481 kts | 161° |
| 2026-05-06 03:46 | 42.47279 | 28.59266 | 31788 ft | 482 kts | 161° |
| 2026-05-06 03:47 | 42.44066 | 28.60701 | 30886 ft | 482 kts | 161° |
| 2026-05-06 03:47 | 42.40925 | 28.62103 | 29735 ft | 480 kts | 161° |
| 2026-05-06 03:47 | 42.37752 | 28.63513 | 28124 ft | 485 kts | 161° |
| 2026-05-06 03:47 | 42.34583 | 28.64922 | 26694 ft | 480 kts | 161° |
| 2026-05-06 03:48 | 42.31496 | 28.66293 | 26173 ft | 464 kts | 161° |
| 2026-05-06 03:48 | 42.28416 | 28.67663 | 25757 ft | 462 kts | 161° |
| 2026-05-06 03:48 | 42.25393 | 28.69007 | 25261 ft | 459 kts | 161° |
| 2026-05-06 03:48 | 42.22373 | 28.70348 | 24731 ft | 455 kts | 161° |
| 2026-05-06 03:49 | 42.19379 | 28.71675 | 24186 ft | 453 kts | 161° |
| 2026-05-06 03:49 | 42.16397 | 28.72996 | 23665 ft | 448 kts | 161° |
| 2026-05-06 03:49 | 42.13444 | 28.74302 | 23438 ft | 445 kts | 161° |
| 2026-05-06 03:49 | 42.10533 | 28.75558 | 23180 ft | 441 kts | 163° |
| 2026-05-06 03:50 | 42.07559 | 28.76434 | 22896 ft | 430 kts | 171° |
| 2026-05-06 03:50 | 42.04655 | 28.76806 | 22895 ft | 417 kts | 177° |
| 2026-05-06 03:50 | 42.01766 | 28.76940 | 22914 ft | 416 kts | 179° |
| 2026-05-06 03:50 | 41.98849 | 28.77029 | 22931 ft | 416 kts | 179° |
| 2026-05-06 03:51 | 41.95953 | 28.77118 | 22959 ft | 416 kts | 179° |
| 2026-05-06 03:51 | 41.93088 | 28.77218 | 22972 ft | 416 kts | 178° |
| 2026-05-06 03:51 | 41.90184 | 28.77328 | 22982 ft | 416 kts | 178° |
| 2026-05-06 03:51 | 41.87289 | 28.77441 | 22981 ft | 415 kts | 178° |
| 2026-05-06 03:52 | 41.84424 | 28.77553 | 22814 ft | 408 kts | 178° |
| 2026-05-06 03:52 | 41.81622 | 28.77662 | 22558 ft | 399 kts | 178° |
| 2026-05-06 03:52 | 41.78899 | 28.77743 | 22326 ft | 389 kts | 181° |
| 2026-05-06 03:52 | 41.76337 | 28.77037 | 22112 ft | 370 kts | 207° |
| 2026-05-06 03:53 | 41.74246 | 28.75002 | 21746 ft | 372 kts | 232° |
| 2026-05-06 03:53 | 41.72727 | 28.72207 | 21356 ft | 369 kts | 241° |
| 2026-05-06 03:53 | 41.71390 | 28.69371 | 21025 ft | 362 kts | 241° |
| 2026-05-06 03:53 | 41.70013 | 28.66571 | 20562 ft | 361 kts | 239° |
| 2026-05-06 03:54 | 41.68587 | 28.63830 | 20124 ft | 360 kts | 238° |
| 2026-05-06 03:54 | 41.67115 | 28.61097 | 19694 ft | 358 kts | 238° |
| 2026-05-06 03:54 | 41.65672 | 28.58454 | 19286 ft | 355 kts | 237° |
| 2026-05-06 03:54 | 41.64213 | 28.55791 | 18871 ft | 353 kts | 238° |
| 2026-05-06 03:55 | 41.62781 | 28.53180 | 18467 ft | 350 kts | 238° |
| 2026-05-06 03:55 | 41.61350 | 28.50569 | 18067 ft | 348 kts | 238° |
| 2026-05-06 03:55 | 41.59934 | 28.47990 | 17665 ft | 345 kts | 238° |
| 2026-05-06 03:55 | 41.58520 | 28.45414 | 17270 ft | 343 kts | 238° |
| 2026-05-06 03:56 | 41.57111 | 28.42849 | 16869 ft | 341 kts | 238° |
| 2026-05-06 03:56 | 41.55718 | 28.40314 | 16469 ft | 339 kts | 238° |
| 2026-05-06 03:56 | 41.54329 | 28.37789 | 16069 ft | 337 kts | 238° |
| 2026-05-06 03:56 | 41.52946 | 28.35299 | 15678 ft | 335 kts | 237° |
| 2026-05-06 03:57 | 41.51523 | 28.32785 | 15280 ft | 333 kts | 237° |
| 2026-05-06 03:57 | 41.50139 | 28.30355 | 14896 ft | 331 kts | 237° |
| 2026-05-06 03:57 | 41.48751 | 28.27917 | 14504 ft | 329 kts | 237° |
| 2026-05-06 03:57 | 41.47382 | 28.25509 | 14117 ft | 327 kts | 237° |
| 2026-05-06 03:58 | 41.45996 | 28.23072 | 13730 ft | 325 kts | 237° |
| 2026-05-06 03:58 | 41.44649 | 28.20705 | 13354 ft | 323 kts | 237° |
| 2026-05-06 03:58 | 41.43294 | 28.18323 | 12979 ft | 321 kts | 237° |
| 2026-05-06 03:58 | 41.41944 | 28.15951 | 12607 ft | 320 kts | 237° |
| 2026-05-06 03:59 | 41.40597 | 28.13588 | 12234 ft | 318 kts | 237° |
| 2026-05-06 03:59 | 41.39218 | 28.11320 | 11844 ft | 319 kts | 227° |
| 2026-05-06 03:59 | 41.37285 | 28.09816 | 11439 ft | 324 kts | 195° |
| 2026-05-06 03:59 | 41.35086 | 28.09564 | 11106 ft | 321 kts | 177° |
| 2026-05-06 04:00 | 41.32841 | 28.09767 | 10752 ft | 319 kts | 174° |
| 2026-05-06 04:00 | 41.30654 | 28.09981 | 10392 ft | 317 kts | 175° |
| 2026-05-06 04:00 | 41.28433 | 28.10120 | 10107 ft | 316 kts | 177° |
| 2026-05-06 04:00 | 41.26242 | 28.10162 | 9967 ft | 312 kts | 184° |
| 2026-05-06 04:01 | 41.24267 | 28.09362 | 9954 ft | 290 kts | 218° |
| 2026-05-06 04:01 | 41.22785 | 28.07618 | 9992 ft | 279 kts | 231° |
| 2026-05-06 04:01 | 41.21488 | 28.05727 | 10004 ft | 275 kts | 232° |
| 2026-05-06 04:01 | 41.20199 | 28.03865 | 10012 ft | 274 kts | 231° |
| 2026-05-06 04:02 | 41.18823 | 28.02092 | 10008 ft | 276 kts | 223° |
| 2026-05-06 04:02 | 41.17249 | 28.00624 | 10014 ft | 278 kts | 214° |
| 2026-05-06 04:02 | 41.15574 | 27.99346 | 10009 ft | 278 kts | 212° |
| 2026-05-06 04:02 | 41.13863 | 27.98097 | 10007 ft | 279 kts | 212° |
| 2026-05-06 04:03 | 41.12178 | 27.96868 | 10006 ft | 279 kts | 212° |
| 2026-05-06 04:03 | 41.10409 | 27.95756 | 10006 ft | 280 kts | 203° |
| 2026-05-06 04:03 | 41.08562 | 27.94986 | 10007 ft | 281 kts | 196° |
| 2026-05-06 04:03 | 41.06645 | 27.94342 | 10008 ft | 281 kts | 195° |
| 2026-05-06 04:04 | 41.04764 | 27.93736 | 10007 ft | 281 kts | 195° |
| 2026-05-06 04:04 | 41.02837 | 27.93122 | 10004 ft | 281 kts | 192° |
| 2026-05-06 04:04 | 41.00918 | 27.92779 | 10007 ft | 281 kts | 183° |
| 2026-05-06 04:04 | 40.98957 | 27.92743 | 10012 ft | 282 kts | 179° |
| 2026-05-06 04:05 | 40.96973 | 27.92795 | 10008 ft | 282 kts | 178° |
| 2026-05-06 04:05 | 40.95078 | 27.93187 | 9980 ft | 278 kts | 152° |
| 2026-05-06 04:05 | 40.93632 | 27.94748 | 9997 ft | 262 kts | 115° |
| 2026-05-06 04:05 | 40.93055 | 27.96982 | 10021 ft | 261 kts | 86° |
| 2026-05-06 04:06 | 40.93253 | 27.99350 | 10030 ft | 257 kts | 73° |
| 2026-05-06 04:06 | 40.93572 | 28.01652 | 9975 ft | 258 kts | 73° |
| 2026-05-06 04:06 | 40.93870 | 28.04001 | 9622 ft | 260 kts | 75° |
| 2026-05-06 04:06 | 40.94144 | 28.06350 | 9259 ft | 260 kts | 76° |
| 2026-05-06 04:07 | 40.94403 | 28.08705 | 8938 ft | 258 kts | 76° |
| 2026-05-06 04:07 | 40.94655 | 28.11044 | 8623 ft | 256 kts | 76° |
| 2026-05-06 04:07 | 40.94901 | 28.13364 | 8311 ft | 253 kts | 76° |
| 2026-05-06 04:07 | 40.95144 | 28.15652 | 7995 ft | 251 kts | 76° |
| 2026-05-06 04:08 | 40.95385 | 28.17927 | 7681 ft | 249 kts | 76° |
| 2026-05-06 04:08 | 40.95626 | 28.20209 | 7367 ft | 247 kts | 77° |
| 2026-05-06 04:08 | 40.95861 | 28.22432 | 7071 ft | 245 kts | 77° |
| 2026-05-06 04:08 | 40.96097 | 28.24669 | 6764 ft | 244 kts | 77° |
| 2026-05-06 04:09 | 40.96328 | 28.26866 | 6465 ft | 242 kts | 77° |
| 2026-05-06 04:09 | 40.96559 | 28.29060 | 6161 ft | 241 kts | 77° |
| 2026-05-06 04:09 | 40.96788 | 28.31247 | 5859 ft | 239 kts | 77° |
| 2026-05-06 04:09 | 40.97014 | 28.33403 | 5562 ft | 238 kts | 78° |
| 2026-05-06 04:10 | 40.97242 | 28.35581 | 5262 ft | 237 kts | 78° |
| 2026-05-06 04:10 | 40.97439 | 28.37724 | 5035 ft | 235 kts | 85° |
| 2026-05-06 04:10 | 40.97110 | 28.39855 | 5019 ft | 240 kts | 111° |
| 2026-05-06 04:10 | 40.96299 | 28.41807 | 5035 ft | 242 kts | 117° |
| 2026-05-06 04:11 | 40.95447 | 28.43708 | 5029 ft | 242 kts | 117° |
| 2026-05-06 04:11 | 40.94591 | 28.45625 | 5026 ft | 242 kts | 117° |
| 2026-05-06 04:11 | 40.93737 | 28.47565 | 5023 ft | 242 kts | 116° |
| 2026-05-06 04:11 | 40.92902 | 28.49478 | 5024 ft | 242 kts | 116° |
| 2026-05-06 04:12 | 40.92065 | 28.51410 | 5026 ft | 241 kts | 116° |
| 2026-05-06 04:12 | 40.91234 | 28.53329 | 5025 ft | 241 kts | 116° |
| 2026-05-06 04:12 | 40.90394 | 28.55270 | 5022 ft | 242 kts | 116° |
| 2026-05-06 04:12 | 40.89567 | 28.57203 | 5020 ft | 241 kts | 112° |
| 2026-05-06 04:13 | 40.89198 | 28.59292 | 4988 ft | 231 kts | 78° |
| 2026-05-06 04:13 | 40.89663 | 28.61278 | 5035 ft | 227 kts | 65° |
| 2026-05-06 04:13 | 40.90226 | 28.63240 | 5024 ft | 228 kts | 66° |
| 2026-05-06 04:13 | 40.90763 | 28.65210 | 5023 ft | 228 kts | 67° |
| 2026-05-06 04:14 | 40.91289 | 28.67198 | 5023 ft | 228 kts | 67° |
| 2026-05-06 04:14 | 40.92014 | 28.69042 | 5001 ft | 223 kts | 44° |
| 2026-05-06 04:14 | 40.93252 | 28.70230 | 5029 ft | 220 kts | 27° |
| 2026-05-06 04:14 | 40.94609 | 28.71196 | 5026 ft | 220 kts | 26° |
| 2026-05-06 04:15 | 40.95962 | 28.72161 | 5024 ft | 221 kts | 27° |
| 2026-05-06 04:15 | 40.97319 | 28.73058 | 5008 ft | 214 kts | 15° |
| 2026-05-06 04:15 | 40.98777 | 28.73336 | 5015 ft | 206 kts | 1° |
| 2026-05-06 04:15 | 41.00193 | 28.73331 | 5017 ft | 203 kts | 359° |
| 2026-05-06 04:16 | 41.01596 | 28.73279 | 5013 ft | 200 kts | 358° |
| 2026-05-06 04:16 | 41.02982 | 28.73229 | 4885 ft | 199 kts | 359° |
| 2026-05-06 04:16 | 41.04373 | 28.73189 | 4623 ft | 199 kts | 359° |
| 2026-05-06 04:16 | 41.05744 | 28.73159 | 4357 ft | 199 kts | 359° |
| 2026-05-06 04:17 | 41.07143 | 28.73132 | 4085 ft | 199 kts | 359° |
| 2026-05-06 04:17 | 41.08489 | 28.73108 | 3918 ft | 190 kts | 359° |
| 2026-05-06 04:17 | 41.09801 | 28.73084 | 3637 ft | 186 kts | 359° |
| 2026-05-06 04:17 | 41.11085 | 28.73061 | 3359 ft | 183 kts | 359° |
| 2026-05-06 04:18 | 41.12349 | 28.73037 | 3089 ft | 179 kts | 359° |
| 2026-05-06 04:18 | 41.13540 | 28.73015 | 2823 ft | 167 kts | 359° |
| 2026-05-06 04:18 | 41.14676 | 28.72993 | 2578 ft | 156 kts | 359° |
| 2026-05-06 04:18 | 41.15721 | 28.72973 | 2364 ft | 147 kts | 359° |
| 2026-05-06 04:19 | 41.16742 | 28.72954 | 2206 ft | 146 kts | 359° |
| 2026-05-06 04:19 | 41.17766 | 28.72934 | 2038 ft | 147 kts | 359° |
| 2026-05-06 04:19 | 41.18795 | 28.72915 | 1842 ft | 148 kts | 359° |
| 2026-05-06 04:19 | 41.19846 | 28.72894 | 1637 ft | 149 kts | 360° |
| 2026-05-06 04:20 | 41.20873 | 28.72874 | 1432 ft | 144 kts | 360° |
| 2026-05-06 04:20 | 41.21845 | 28.72856 | 1213 ft | 137 kts | 360° |
| 2026-05-06 04:20 | 41.22812 | 28.72837 | 1033 ft | 137 kts | 360° |
| 2026-05-06 04:20 | 41.23763 | 28.72819 | 857 ft | 137 kts | 360° |
| 2026-05-06 04:21 | 41.24724 | 28.72797 | 683 ft | 137 kts | 359° |
| 2026-05-06 04:21 | 41.25685 | 28.72772 | 513 ft | 137 kts | 359° |
| 2026-05-06 04:21 | 41.26635 | 28.72762 | 353 ft | 133 kts | 0° |
| 2026-05-06 04:21 | 41.27455 | 28.72749 | 335 ft | 96 kts | 359° |
| 2026-05-06 04:22 | 41.28012 | 28.72739 | 335 ft | 66 kts | 359° |
| 2026-05-06 04:22 | 41.28309 | 28.72777 | 335 ft | 31 kts | 27° |
| 2026-05-06 04:22 | 41.28453 | 28.72918 | 335 ft | 16 kts | 86° |
| 2026-05-06 04:23 | 41.28287 | 28.72978 | 335 ft | 7 kts | 180° |
| 2026-05-06 04:23 | 41.28257 | 28.72978 | 335 ft | 0 kts | 180° |
| 2026-05-06 04:23 | 41.28229 | 28.72978 | 335 ft | 6 kts | 180° |
| 2026-05-06 04:24 | 41.28180 | 28.72978 | 335 ft | 7 kts | 180° |
| 2026-05-06 04:24 | 41.28122 | 28.72978 | 335 ft | 8 kts | 180° |
| 2026-05-06 04:24 | 41.28057 | 28.72977 | 335 ft | 9 kts | 180° |
| 2026-05-06 04:24 | 41.27988 | 28.72977 | 335 ft | 9 kts | 179° |
| 2026-05-06 04:25 | 41.27921 | 28.72979 | 335 ft | 9 kts | 179° |
| 2026-05-06 04:25 | 41.27855 | 28.72980 | 335 ft | 9 kts | 180° |
| 2026-05-06 04:25 | 41.27790 | 28.72982 | 334 ft | 9 kts | 178° |
| 2026-05-06 04:25 | 41.27727 | 28.72984 | 335 ft | 8 kts | 179° |
| 2026-05-06 04:26 | 41.27665 | 28.72986 | 335 ft | 8 kts | 179° |
| 2026-05-06 04:26 | 41.27604 | 28.72986 | 334 ft | 8 kts | 180° |
| 2026-05-06 04:26 | 41.27545 | 28.72986 | 335 ft | 8 kts | 179° |
| 2026-05-06 04:26 | 41.27486 | 28.72987 | 335 ft | 8 kts | 180° |
| 2026-05-06 04:27 | 41.27430 | 28.72988 | 335 ft | 8 kts | 180° |
| 2026-05-06 04:27 | 41.27374 | 28.72988 | 334 ft | 7 kts | 180° |
| 2026-05-06 04:27 | 41.27317 | 28.72988 | 335 ft | 7 kts | 181° |
| 2026-05-06 04:27 | 41.27263 | 28.72987 | 334 ft | 7 kts | 180° |
| 2026-05-06 04:28 | 41.27210 | 28.72987 | 334 ft | 7 kts | 180° |
| 2026-05-06 04:28 | 41.27158 | 28.72986 | 334 ft | 7 kts | 181° |
| 2026-05-06 04:28 | 41.27107 | 28.72987 | 334 ft | 7 kts | 180° |
| 2026-05-06 04:28 | 41.27050 | 28.72989 | 334 ft | 9 kts | 176° |
| 2026-05-06 04:29 | 41.26983 | 28.73000 | 335 ft | 10 kts | 163° |
| 2026-05-06 04:29 | 41.26955 | 28.73072 | 334 ft | 9 kts | 89° |
| 2026-05-06 04:29 | 41.26955 | 28.73161 | 334 ft | 9 kts | 90° |
| 2026-05-06 04:29 | 41.26956 | 28.73250 | 334 ft | 9 kts | 88° |
| 2026-05-06 04:30 | 41.26958 | 28.73338 | 334 ft | 9 kts | 89° |
| 2026-05-06 04:30 | 41.26959 | 28.73425 | 334 ft | 9 kts | 89° |
| 2026-05-06 04:30 | 41.26959 | 28.73511 | 334 ft | 9 kts | 90° |
| 2026-05-06 04:30 | 41.26959 | 28.73597 | 334 ft | 9 kts | 89° |
| 2026-05-06 04:31 | 41.26960 | 28.73682 | 334 ft | 9 kts | 88° |
| 2026-05-06 04:31 | 41.26963 | 28.73766 | 334 ft | 9 kts | 87° |
| 2026-05-06 04:31 | 41.26954 | 28.73847 | 334 ft | 8 kts | 122° |
| 2026-05-06 04:31 | 41.26899 | 28.73875 | 334 ft | 8 kts | 179° |
| 2026-05-06 04:32 | 41.26839 | 28.73875 | 334 ft | 8 kts | 180° |
| 2026-05-06 04:32 | 41.26779 | 28.73875 | 334 ft | 8 kts | 180° |
| 2026-05-06 04:32 | 41.26720 | 28.73878 | 334 ft | 8 kts | 178° |
| 2026-05-06 04:32 | 41.26663 | 28.73878 | 334 ft | 8 kts | 180° |
| 2026-05-06 04:33 | 41.26607 | 28.73879 | 334 ft | 8 kts | 179° |
| 2026-05-06 04:33 | 41.26552 | 28.73880 | 334 ft | 7 kts | 177° |
| 2026-05-06 04:33 | 41.26500 | 28.73897 | 334 ft | 7 kts | 162° |
| 2026-05-06 04:33 | 41.26450 | 28.73919 | 334 ft | 7 kts | 161° |
| 2026-05-06 04:34 | 41.26411 | 28.73956 | 334 ft | 6 kts | 114° |
| 2026-05-06 04:34 | 41.26405 | 28.74019 | 334 ft | 6 kts | 97° |
| 2026-05-06 04:34 | 41.26400 | 28.74041 | 334 ft | 0 kts | 118° |
| 2026-05-06 04:35 | 41.26400 | 28.74043 | 334 ft | 0 kts | 118° |
| 2026-05-06 04:35 | 41.26399 | 28.74044 | 334 ft | 0 kts | 118° |
| 2026-05-06 04:35 | 41.26399 | 28.74045 | 334 ft | 0 kts | 118° |
| 2026-05-06 04:35 | 41.26398 | 28.74046 | 334 ft | 0 kts | 118° |
| 2026-05-06 04:36 | 41.26390 | 28.74052 | 334 ft | 4 kts | 154° |
| 2026-05-06 04:36 | 41.26365 | 28.74075 | 334 ft | 4 kts | 143° |
| 2026-05-06 04:36 | 41.26358 | 28.74082 | 334 ft | 0 kts | 143° |